createdAt,value
2022-10-25T00:00:46.679Z,100849.44
2022-10-25T00:03:14.746Z,100848.59
2022-10-25T00:05:43.278Z,100849.06
2022-10-25T00:08:12.773Z,100855.06
2022-10-25T00:10:40.972Z,100844.78
2022-10-25T00:13:09.092Z,100835.94
2022-10-25T00:15:37.147Z,100832.94
2022-10-25T00:18:05.759Z,100825.66
2022-10-25T00:20:33.827Z,100828.81
2022-10-25T00:23:01.921Z,100832.13
2022-10-25T00:25:31.630Z,100825.16
2022-10-25T00:27:59.744Z,100831.94
2022-10-25T00:30:27.823Z,100824.50
2022-10-25T00:32:55.889Z,100816.44
2022-10-25T00:35:24.361Z,100813.44
2022-10-25T00:37:53.066Z,100812.66
2022-10-25T00:40:21.145Z,100808.22
2022-10-25T00:42:50.626Z,100809.03
2022-10-25T00:45:24.316Z,100820.56
2022-10-25T00:47:57.743Z,100808.09
2022-10-25T00:50:41.278Z,100808.09
2022-10-25T00:53:13.446Z,100812.09
2022-10-25T00:55:45.726Z,100806.09
2022-10-25T00:58:19.335Z,100805.00
2022-10-25T01:00:47.738Z,100801.97
2022-10-25T01:03:17.746Z,100798.19
2022-10-25T01:05:47.068Z,100805.16
2022-10-25T01:08:16.553Z,100799.59
2022-10-25T01:10:45.017Z,100801.50
2022-10-25T01:13:13.232Z,100796.25
2022-10-25T01:16:01.906Z,100796.38
2022-10-25T01:18:43.556Z,100800.66
2022-10-25T01:21:37.276Z,100795.91
2022-10-25T01:24:28.171Z,100791.47
2022-10-25T01:27:31.348Z,100789.44
2022-10-25T01:30:17.128Z,100789.09
2022-10-25T01:32:58.316Z,100775.69
2022-10-25T01:35:30.937Z,100779.72
2022-10-25T01:38:21.637Z,100782.34
2022-10-25T01:40:58.409Z,100778.84
2022-10-25T01:43:35.211Z,100777.41
2022-10-25T01:46:13.713Z,100784.66
2022-10-25T01:48:47.394Z,100785.50
2022-10-25T01:51:18.048Z,100782.31
2022-10-25T01:53:50.702Z,100787.44
2022-10-25T01:56:25.792Z,100785.47
2022-10-25T01:59:21.800Z,100782.09
2022-10-25T02:02:02.488Z,100778.63
2022-10-25T02:04:41.665Z,100780.38
2022-10-25T02:07:14.499Z,100780.81
2022-10-25T02:09:50.191Z,100780.91
2022-10-25T02:12:26.264Z,100772.16
2022-10-25T02:15:03.977Z,100781.38
2022-10-25T02:17:35.476Z,100772.91
2022-10-25T02:20:08.871Z,100771.75
2022-10-25T02:22:40.365Z,100768.09
2022-10-25T02:25:10.755Z,100767.22
2022-10-25T02:27:41.248Z,100772.44
2022-10-25T02:30:10.420Z,100768.81
2022-10-25T02:32:38.695Z,100771.19
2022-10-25T02:35:14.450Z,100767.88
2022-10-25T02:37:43.026Z,100755.06
2022-10-25T02:40:12.076Z,100760.25
2022-10-25T02:42:40.274Z,100761.69
2022-10-25T02:45:09.499Z,100762.03
2022-10-25T02:47:37.820Z,100759.66
2022-10-25T02:50:07.722Z,100756.50
2022-10-25T02:52:35.913Z,100758.16
2022-10-25T02:55:04.050Z,100757.38
2022-10-25T02:57:34.805Z,100759.81
2022-10-25T03:00:03.110Z,100763.63
2022-10-25T03:02:31.297Z,100763.19
2022-10-25T03:04:59.557Z,100763.50
2022-10-25T03:07:29.101Z,100754.63
2022-10-25T03:09:57.348Z,100764.09
2022-10-25T03:12:25.688Z,100774.25
2022-10-25T03:14:53.780Z,100758.06
2022-10-25T03:17:22.239Z,100764.91
2022-10-25T03:19:50.448Z,100752.13
2022-10-25T03:22:18.505Z,100751.75
2022-10-25T03:24:48.255Z,100755.69
2022-10-25T03:27:17.942Z,100762.63
2022-10-25T03:29:46.091Z,100754.19
2022-10-25T03:32:14.295Z,100748.13
2022-10-25T03:34:42.352Z,100742.81
2022-10-25T03:37:10.500Z,100740.72
2022-10-25T03:39:38.673Z,100734.38
2022-10-25T03:42:08.218Z,100734.84
2022-10-25T03:44:36.310Z,100735.97
2022-10-25T03:47:04.657Z,100735.66
2022-10-25T03:49:32.775Z,100726.94
2022-10-25T03:52:02.823Z,100725.22
2022-10-25T03:54:33.065Z,100726.78
2022-10-25T03:57:01.236Z,100721.94
2022-10-25T03:59:31.016Z,100720.50
2022-10-25T04:01:59.149Z,100720.50
2022-10-25T04:04:27.321Z,100727.00
2022-10-25T04:06:55.462Z,100720.63
2022-10-25T04:09:24.661Z,100724.41
2022-10-25T04:11:52.720Z,100720.03
2022-10-25T04:14:20.822Z,100718.63
2022-10-25T04:16:50.457Z,100717.19
2022-10-25T04:19:18.755Z,100714.34
2022-10-25T04:21:46.873Z,100719.84
2022-10-25T04:24:15.050Z,100722.97
2022-10-25T04:26:43.152Z,100712.72
2022-10-25T04:29:13.152Z,100714.59
2022-10-25T04:31:41.238Z,100720.94
2022-10-25T04:34:10.750Z,100714.19
2022-10-25T04:36:39.979Z,100714.97
2022-10-25T04:39:08.030Z,100705.31
2022-10-25T04:41:36.329Z,100709.28
2022-10-25T04:44:04.496Z,100713.25
2022-10-25T04:46:33.728Z,100710.56
2022-10-25T04:49:01.855Z,100711.53
2022-10-25T04:51:31.389Z,100708.53
2022-10-25T04:53:59.694Z,100717.28
2022-10-25T04:56:30.136Z,100717.28
2022-10-25T04:58:59.753Z,100713.34
2022-10-25T05:01:28.492Z,100709.31
2022-10-25T05:03:56.667Z,100712.97
2022-10-25T05:06:27.730Z,100719.13
2022-10-25T05:08:57.177Z,100720.88
2022-10-25T05:11:26.658Z,100718.88
2022-10-25T05:13:54.808Z,100725.44
2022-10-25T05:16:25.876Z,100728.03
2022-10-25T05:18:55.959Z,100728.22
2022-10-25T05:24:02.596Z,100722.69
2022-10-25T05:26:32.359Z,100726.81
2022-10-25T05:29:00.995Z,100728.66
2022-10-25T05:31:30.782Z,100731.03
2022-10-25T05:34:01.064Z,100726.09
2022-10-25T05:36:29.766Z,100727.38
2022-10-25T05:39:01.873Z,100741.94
2022-10-25T05:41:33.180Z,100740.13
2022-10-25T05:44:04.753Z,100740.59
2022-10-25T05:46:33.541Z,100742.75
2022-10-25T05:49:02.040Z,100744.34
2022-10-25T05:51:36.317Z,100752.41
2022-10-25T05:54:08.238Z,100756.09
2022-10-25T05:56:36.858Z,100746.63
2022-10-25T05:59:08.841Z,100762.13
2022-10-25T06:01:38.469Z,100762.31
2022-10-25T06:04:07.276Z,100767.91
2022-10-25T06:06:36.258Z,100768.38
2022-10-25T06:09:06.774Z,100762.75
2022-10-25T06:11:35.268Z,100757.81
2022-10-25T06:14:03.940Z,100760.53
2022-10-25T06:16:32.544Z,100767.09
2022-10-25T06:19:00.668Z,100755.84
2022-10-25T06:21:30.576Z,100757.63
2022-10-25T06:24:00.284Z,100756.38
2022-10-25T06:26:31.350Z,100759.78
2022-10-25T06:29:01.653Z,100755.38
2022-10-25T06:31:30.685Z,100760.56
2022-10-25T06:34:00.872Z,100757.06
2022-10-25T06:36:30.588Z,100754.00
2022-10-25T06:39:05.155Z,100748.91
2022-10-25T06:41:37.957Z,100756.13
2022-10-25T06:44:07.582Z,100754.41
2022-10-25T06:47:11.508Z,100755.03
2022-10-25T06:49:26.271Z,100747.34
2022-10-25T06:51:54.372Z,100741.44
2022-10-25T06:54:22.564Z,100744.34
2022-10-25T06:56:52.094Z,100740.94
2022-10-25T06:59:20.687Z,100740.59
2022-10-25T07:01:50.197Z,100730.09
2022-10-25T07:04:18.458Z,100733.25
2022-10-25T07:06:49.969Z,100731.41
2022-10-25T07:09:20.937Z,100730.38
2022-10-25T07:11:49.002Z,100736.84
2022-10-25T07:14:18.747Z,100730.50
2022-10-25T07:16:46.928Z,100731.84
2022-10-25T07:19:15.018Z,100731.13
2022-10-25T07:21:43.114Z,100725.84
2022-10-25T07:24:11.929Z,100733.31
2022-10-25T07:26:40.462Z,100733.56
2022-10-25T07:29:08.825Z,100735.88
2022-10-25T07:31:41.527Z,100737.38
2022-10-25T07:34:12.013Z,100735.38
2022-10-25T07:36:40.345Z,100728.56
2022-10-25T07:39:08.687Z,100740.22
2022-10-25T07:41:36.991Z,100732.66
2022-10-25T07:44:05.280Z,100729.19
2022-10-25T07:46:33.354Z,100725.84
2022-10-25T07:49:03.035Z,100727.91
2022-10-25T07:51:31.303Z,100738.75
2022-10-25T07:53:59.494Z,100735.72
2022-10-25T07:56:27.640Z,100731.19
2022-10-25T07:58:55.668Z,100731.69
2022-10-25T08:01:26.174Z,100725.84
2022-10-25T08:03:55.510Z,100723.53
2022-10-25T08:06:26.355Z,100724.94
2022-10-25T08:08:55.066Z,100716.19
2022-10-25T08:11:23.222Z,100716.88
2022-10-25T08:13:52.015Z,100720.84
2022-10-25T08:16:20.142Z,100719.50
2022-10-25T08:18:48.384Z,100720.47
2022-10-25T08:21:16.575Z,100707.88
2022-10-25T08:23:46.330Z,100705.59
2022-10-25T08:26:14.625Z,100708.34
2022-10-25T08:28:42.677Z,100714.91
2022-10-25T08:31:10.914Z,100707.03
2022-10-25T08:33:39.458Z,100709.84
2022-10-25T08:36:08.221Z,100702.94
2022-10-25T08:38:36.269Z,100697.75
2022-10-25T08:41:12.032Z,100694.78
2022-10-25T08:44:20.045Z,100694.28
2022-10-25T08:46:55.874Z,100691.19
2022-10-25T08:49:29.339Z,100678.63
2022-10-25T08:52:00.568Z,100681.56
2022-10-25T08:54:30.980Z,100678.00
2022-10-25T08:57:16.831Z,100674.94
2022-10-25T08:59:49.767Z,100668.78
2022-10-25T09:02:24.854Z,100681.56
2022-10-25T09:04:53.172Z,100669.91
2022-10-25T09:07:46.811Z,100670.91
2022-10-25T09:10:26.586Z,100668.44
2022-10-25T09:13:08.469Z,100674.44
2022-10-25T09:15:52.472Z,100678.78
2022-10-25T09:18:27.068Z,100672.56
2022-10-25T09:20:55.659Z,100671.88
2022-10-25T09:23:30.461Z,100671.47
2022-10-25T09:26:05.092Z,100664.09
2022-10-25T09:28:52.445Z,100663.09
2022-10-25T09:31:24.514Z,100661.69
2022-10-25T09:34:04.053Z,100659.16
2022-10-25T09:36:39.279Z,100664.53
2022-10-25T09:39:18.277Z,100658.25
2022-10-25T09:41:51.001Z,100655.28
2022-10-25T09:44:32.103Z,100658.91
2022-10-25T09:47:05.785Z,100649.13
2022-10-25T09:49:42.029Z,100643.84
2022-10-25T09:52:19.022Z,100645.19
2022-10-25T09:54:52.641Z,100637.56
2022-10-25T09:57:20.903Z,100631.16
2022-10-25T09:59:52.867Z,100635.41
2022-10-25T10:02:25.629Z,100638.75
2022-10-25T10:04:55.094Z,100637.03
2022-10-25T10:07:29.318Z,100631.78
2022-10-25T10:10:01.499Z,100627.25
2022-10-25T10:12:36.088Z,100628.00
2022-10-25T10:15:14.513Z,100624.75
2022-10-25T10:17:42.766Z,100615.97
2022-10-25T10:20:15.782Z,100614.63
2022-10-25T10:22:52.130Z,100606.44
2022-10-25T10:25:23.809Z,100608.44
2022-10-25T10:27:54.591Z,100602.84
2022-10-25T10:30:28.892Z,100595.69
2022-10-25T10:33:00.647Z,100602.56
2022-10-25T10:35:34.604Z,100592.41
2022-10-25T10:38:21.833Z,100599.72
2022-10-25T10:40:51.715Z,100590.34
2022-10-25T10:43:31.866Z,100587.25
2022-10-25T10:46:06.011Z,100577.88
2022-10-25T10:48:42.010Z,100582.81
2022-10-25T10:51:38.851Z,100578.66
2022-10-25T10:54:23.642Z,100579.47
2022-10-25T10:57:00.892Z,100579.31
2022-10-25T10:59:41.031Z,100581.13
2022-10-25T11:02:36.867Z,100580.59
2022-10-25T11:05:20.619Z,100573.63
2022-10-25T11:07:56.884Z,100575.53
2022-10-25T11:10:28.750Z,100574.75
2022-10-25T11:13:11.563Z,100572.47
2022-10-25T11:16:04.267Z,100566.16
2022-10-25T11:18:47.461Z,100565.91
2022-10-25T11:21:29.889Z,100558.69
2022-10-25T11:24:09.536Z,100553.66
2022-10-25T11:26:52.180Z,100561.19
2022-10-25T11:29:33.003Z,100551.22
2022-10-25T11:32:11.960Z,100550.13
2022-10-25T11:34:50.300Z,100542.13
2022-10-25T11:37:22.549Z,100544.16
2022-10-25T11:40:04.109Z,100541.25
2022-10-25T11:42:57.476Z,100537.56
2022-10-25T11:45:36.648Z,100531.75
2022-10-25T11:48:42.606Z,100530.25
2022-10-25T11:51:25.327Z,100526.44
2022-10-25T11:54:20.585Z,100528.00
2022-10-25T11:57:01.515Z,100534.91
2022-10-25T11:59:44.806Z,100534.19
2022-10-25T12:02:34.897Z,100532.84
2022-10-25T12:05:18.126Z,100528.50
2022-10-25T12:07:48.920Z,100521.50
2022-10-25T12:10:29.327Z,100528.50
2022-10-25T12:13:02.591Z,100524.28
2022-10-25T12:15:38.104Z,100523.81
2022-10-25T12:18:07.863Z,100526.84
2022-10-25T12:20:38.011Z,100529.13
2022-10-25T12:23:10.804Z,100522.50
2022-10-25T12:25:45.823Z,100526.88
2022-10-25T12:28:23.720Z,100522.94
2022-10-25T12:30:58.228Z,100517.47
2022-10-25T12:33:35.908Z,100518.97
2022-10-25T12:36:08.530Z,100511.53
2022-10-25T12:38:38.768Z,100509.13
2022-10-25T12:41:17.013Z,100510.50
2022-10-25T12:43:54.287Z,100514.41
2022-10-25T12:46:44.191Z,100503.09
2022-10-25T12:49:42.883Z,100503.75
2022-10-25T12:52:25.456Z,100505.75
2022-10-25T12:55:30.708Z,100503.75
2022-10-25T12:58:12.928Z,100510.28
2022-10-25T13:00:47.746Z,100503.75
2022-10-25T13:03:37.779Z,100507.75
2022-10-25T13:06:26.643Z,100508.53
2022-10-25T13:08:56.830Z,100505.81
2022-10-25T13:11:34.962Z,100511.31
2022-10-25T13:14:05.587Z,100506.78
2022-10-25T13:16:36.410Z,100505.16
2022-10-25T13:19:53.450Z,100493.44
2022-10-25T13:22:37.495Z,100497.97
2022-10-25T13:25:19.651Z,100504.00
2022-10-25T13:28:31.535Z,100506.53
2022-10-25T13:31:47.065Z,100493.91
2022-10-25T13:34:36.689Z,100504.72
2022-10-25T13:37:07.042Z,100499.66
2022-10-25T13:39:39.904Z,100498.78
2022-10-25T13:42:23.385Z,100497.50
2022-10-25T13:44:56.867Z,100499.38
2022-10-25T13:47:37.072Z,100490.38
2022-10-25T13:50:20.147Z,100484.09
2022-10-25T13:53:02.643Z,100487.81
2022-10-25T13:55:36.729Z,100485.75
2022-10-25T13:58:42.089Z,100487.22
2022-10-25T14:01:55.838Z,100487.19
2022-10-25T14:04:36.240Z,100487.47
2022-10-25T14:07:41.729Z,100491.25
2022-10-25T14:10:26.869Z,100486.03
2022-10-25T14:13:08.390Z,100488.16
2022-10-25T14:15:46.825Z,100477.91
2022-10-25T14:18:20.668Z,100478.91
2022-10-25T14:20:50.536Z,100478.31
2022-10-25T14:23:23.236Z,100473.78
2022-10-25T14:25:56.781Z,100475.28
2022-10-25T14:28:26.882Z,100480.97
2022-10-25T14:30:56.835Z,100475.03
2022-10-25T14:33:27.716Z,100478.09
2022-10-25T14:35:58.975Z,100482.03
2022-10-25T14:38:28.723Z,100470.59
2022-10-25T14:41:00.158Z,100473.13
2022-10-25T14:43:30.938Z,100470.34
2022-10-25T14:46:12.656Z,100468.91
2022-10-25T14:48:41.776Z,100474.16
2022-10-25T14:51:15.015Z,100474.66
2022-10-25T14:53:54.929Z,100472.09
2022-10-25T14:56:29.035Z,100476.97
2022-10-25T14:58:58.029Z,100472.94
2022-10-25T15:01:27.018Z,100477.47
2022-10-25T15:03:58.400Z,100474.56
2022-10-25T15:06:29.522Z,100473.94
2022-10-25T15:09:29.135Z,100476.81
2022-10-25T15:12:07.983Z,100474.94
2022-10-25T15:14:37.008Z,100473.59
2022-10-25T15:17:06.557Z,100477.69
2022-10-25T15:19:54.723Z,100470.47
2022-10-25T15:22:28.405Z,100476.81
2022-10-25T15:24:57.819Z,100471.84
2022-10-25T15:27:32.942Z,100466.34
2022-10-25T15:30:01.046Z,100467.25
2022-10-25T15:32:29.192Z,100478.63
2022-10-25T15:34:59.934Z,100469.94
2022-10-25T15:37:29.777Z,100473.56
2022-10-25T15:39:58.715Z,100467.47
2022-10-25T15:42:28.577Z,100475.47
2022-10-25T15:44:56.655Z,100475.03
2022-10-25T15:47:33.734Z,100474.13
2022-10-25T15:50:04.591Z,100470.19
2022-10-25T15:52:32.755Z,100461.50
2022-10-25T15:55:00.898Z,100475.16
2022-10-25T15:57:30.791Z,100465.69
2022-10-25T16:00:00.279Z,100464.66
2022-10-25T16:02:28.738Z,100472.97
2022-10-25T16:04:57.066Z,100460.16
2022-10-25T16:07:25.407Z,100463.28
2022-10-25T16:09:53.538Z,100468.00
2022-10-25T16:12:25.944Z,100461.81
2022-10-25T16:14:55.712Z,100462.84
2022-10-25T16:17:23.798Z,100463.53
2022-10-25T16:19:51.933Z,100465.06
2022-10-25T16:22:20.125Z,100466.63
2022-10-25T16:24:48.382Z,100472.69
2022-10-25T16:27:16.662Z,100469.66
2022-10-25T16:29:44.780Z,100468.63
2022-10-25T16:32:14.343Z,100479.44
2022-10-25T16:34:46.103Z,100473.81
2022-10-25T16:37:14.402Z,100480.38
2022-10-25T16:39:42.603Z,100478.09
2022-10-25T16:42:29.320Z,100479.63
2022-10-25T16:44:57.888Z,100482.06
2022-10-25T16:47:28.083Z,100484.94
2022-10-25T16:49:56.346Z,100484.69
2022-10-25T16:52:24.584Z,100481.03
2022-10-25T16:54:53.044Z,100480.22
2022-10-25T16:57:21.242Z,100475.63
2022-10-25T16:59:50.689Z,100479.44
2022-10-25T17:02:20.532Z,100473.72
2022-10-25T17:04:50.484Z,100469.69
2022-10-25T17:07:19.269Z,100467.97
2022-10-25T17:09:47.338Z,100463.63
2022-10-25T17:12:15.449Z,100462.84
2022-10-25T17:14:43.628Z,100477.00
2022-10-25T17:17:12.049Z,100483.75
2022-10-25T17:19:40.143Z,100480.19
2022-10-25T17:22:10.189Z,100483.63
2022-10-25T17:24:38.437Z,100475.84
2022-10-25T17:27:08.243Z,100478.56
2022-10-25T17:29:36.324Z,100465.06
2022-10-25T17:32:04.467Z,100464.94
2022-10-25T17:34:32.695Z,100465.97
2022-10-25T17:37:02.331Z,100467.53
2022-10-25T17:39:32.041Z,100461.25
2022-10-25T17:42:00.159Z,100465.66
2022-10-25T17:44:28.471Z,100461.41
2022-10-25T17:46:58.529Z,100458.91
2022-10-25T17:49:29.217Z,100451.38
2022-10-25T17:51:57.346Z,100455.19
2022-10-25T17:54:25.400Z,100446.16
2022-10-25T17:56:58.562Z,100440.56
2022-10-25T17:59:27.829Z,100440.41
2022-10-25T18:01:56.163Z,100446.47
2022-10-25T18:04:25.103Z,100436.34
2022-10-25T18:06:53.230Z,100429.41
2022-10-25T18:09:22.935Z,100439.63
2022-10-25T18:11:51.082Z,100444.94
2022-10-25T18:14:20.816Z,100447.47
2022-10-25T18:16:48.899Z,100455.06
2022-10-25T18:19:17.222Z,100455.84
2022-10-25T18:21:45.296Z,100456.84
2022-10-25T18:24:14.845Z,100448.53
2022-10-25T18:26:43.007Z,100454.31
2022-10-25T18:29:11.156Z,100447.91
2022-10-25T18:31:40.647Z,100447.44
2022-10-25T18:34:08.737Z,100443.50
2022-10-25T18:36:36.917Z,100441.59
2022-10-25T18:39:05.507Z,100440.13
2022-10-25T18:41:35.559Z,100436.63
2022-10-25T18:44:03.922Z,100440.13
2022-10-25T18:46:32.905Z,100446.22
2022-10-25T18:49:02.637Z,100445.19
2022-10-25T18:51:31.928Z,100448.00
2022-10-25T18:54:01.893Z,100446.34
2022-10-25T18:56:31.661Z,100438.75
2022-10-25T18:59:00.311Z,100449.38
2022-10-25T19:01:32.772Z,100452.94
2022-10-25T19:04:05.374Z,100441.66
2022-10-25T19:06:34.475Z,100448.75
2022-10-25T19:09:03.998Z,100438.19
2022-10-25T19:11:33.458Z,100451.03
2022-10-25T19:14:03.243Z,100440.44
2022-10-25T19:16:31.512Z,100451.59
2022-10-25T19:19:04.647Z,100452.63
2022-10-25T19:21:32.922Z,100446.88
2022-10-25T19:24:01.152Z,100449.03
2022-10-25T19:26:29.357Z,100444.41
2022-10-25T19:28:58.765Z,100449.47
2022-10-25T19:31:28.028Z,100445.84
2022-10-25T19:34:00.681Z,100438.75
2022-10-25T19:36:30.968Z,100446.75
2022-10-25T19:38:59.498Z,100443.84
2022-10-25T19:41:27.716Z,100446.19
2022-10-25T19:43:57.318Z,100444.94
2022-10-25T19:46:26.265Z,100448.84
2022-10-25T19:48:56.313Z,100445.81
2022-10-25T19:51:24.811Z,100452.69
2022-10-25T19:53:54.315Z,100453.53
2022-10-25T19:56:23.851Z,100450.50
2022-10-25T19:58:52.304Z,100448.31
2022-10-25T20:01:23.367Z,100453.94
2022-10-25T20:03:54.661Z,100453.22
2022-10-25T20:06:25.090Z,100454.97
2022-10-25T20:08:56.158Z,100453.03
2022-10-25T20:11:25.677Z,100446.22
2022-10-25T20:13:58.347Z,100447.41
2022-10-25T20:16:27.578Z,100451.75
2022-10-25T20:18:55.869Z,100464.03
2022-10-25T20:21:26.049Z,100459.28
2022-10-25T20:23:57.839Z,100462.19
2022-10-25T20:26:28.245Z,100463.47
2022-10-25T20:28:58.416Z,100462.75
2022-10-25T20:31:28.052Z,100470.44
2022-10-25T20:33:56.505Z,100466.56
2022-10-25T20:36:25.206Z,100462.00
2022-10-25T20:38:53.509Z,100473.81
2022-10-25T20:41:25.570Z,100468.47
2022-10-25T20:43:55.693Z,100461.44
2022-10-25T20:46:25.469Z,100463.63
2022-10-25T20:48:53.892Z,100461.31
2022-10-25T20:51:22.639Z,100458.41
2022-10-25T20:53:50.911Z,100459.19
2022-10-25T20:56:20.569Z,100457.84
2022-10-25T20:58:50.802Z,100460.38
2022-10-25T21:01:19.290Z,100460.69
2022-10-25T21:03:47.480Z,100470.72
2022-10-25T21:06:15.579Z,100470.91
2022-10-25T21:08:43.729Z,100472.19
2022-10-25T21:11:13.785Z,100478.06
2022-10-25T21:13:42.523Z,100470.28
2022-10-25T21:16:14.062Z,100473.50
2022-10-25T21:18:44.084Z,100470.63
2022-10-25T21:21:19.089Z,100482.28
2022-10-25T21:23:48.218Z,100475.78
2022-10-25T21:26:16.654Z,100489.75
2022-10-25T21:28:44.847Z,100471.81
2022-10-25T21:31:17.135Z,100485.31
2022-10-25T21:33:49.967Z,100487.06
2022-10-25T21:36:20.942Z,100485.94
2022-10-25T21:38:49.243Z,100476.88
2022-10-25T21:41:20.684Z,100486.19
2022-10-25T21:43:50.707Z,100484.97
2022-10-25T21:46:21.729Z,100493.25
2022-10-25T21:48:51.493Z,100485.97
2022-10-25T21:51:20.349Z,100492.38
2022-10-25T21:53:49.120Z,100496.06
2022-10-25T21:56:19.197Z,100489.22
2022-10-25T21:58:49.041Z,100495.63
2022-10-25T22:01:20.518Z,100495.00
2022-10-25T22:03:48.884Z,100502.44
2022-10-25T22:06:19.179Z,100497.25
2022-10-25T22:08:48.511Z,100496.31
2022-10-25T22:11:18.701Z,100495.06
2022-10-25T22:13:47.944Z,100498.78
2022-10-25T22:16:18.146Z,100486.28
2022-10-25T22:18:53.788Z,100494.75
2022-10-25T22:21:22.681Z,100494.19
2022-10-25T22:23:51.753Z,100493.66
2022-10-25T22:26:21.778Z,100494.19
2022-10-25T22:28:53.440Z,100494.28
2022-10-25T22:31:22.244Z,100495.69
2022-10-25T22:33:56.040Z,100495.06
2022-10-25T22:36:26.058Z,100497.75
2022-10-25T22:38:54.440Z,100503.63
2022-10-25T22:41:24.781Z,100515.06
2022-10-25T22:43:53.303Z,100521.75
2022-10-25T22:46:25.251Z,100524.28
2022-10-25T22:48:56.800Z,100526.19
2022-10-25T22:51:26.501Z,100528.69
2022-10-25T22:53:55.158Z,100544.63
2022-10-25T22:56:24.510Z,100534.09
2022-10-25T22:58:54.237Z,100539.00
2022-10-25T23:01:24.833Z,100544.28
2022-10-25T23:03:56.714Z,100552.81
2022-10-25T23:06:27.261Z,100555.97
2022-10-25T23:08:56.622Z,100559.56
2022-10-25T23:11:26.996Z,100554.56
2022-10-25T23:13:55.348Z,100566.63
2022-10-25T23:16:23.730Z,100572.28
2022-10-25T23:18:52.244Z,100565.75
2022-10-25T23:21:23.779Z,100575.78
2022-10-25T23:23:53.363Z,100574.66
2022-10-25T23:26:26.168Z,100585.34
2022-10-25T23:28:55.311Z,100583.16
2022-10-25T23:31:24.363Z,100596.03
2022-10-25T23:33:53.728Z,100595.69
2022-10-25T23:36:25.460Z,100591.84
2022-10-25T23:38:54.884Z,100592.94
2022-10-25T23:41:24.062Z,100585.34
2022-10-25T23:43:52.382Z,100574.66
2022-10-25T23:46:20.815Z,100574.38
2022-10-25T23:48:49.268Z,100578.22
2022-10-25T23:51:19.379Z,100579.63
2022-10-25T23:53:48.958Z,100581.75
2022-10-25T23:56:17.432Z,100591.00
2022-10-25T23:58:45.569Z,100594.59
